Time;durP1;ratioP1;P1;durP2;ratioP2;P2;SDS_P1;SDS_P2;PMS_P1;PMS_P2;Temp;Humidity;BMP_temperature;BMP_pressure;BME280_temperature;BME280_humidity;BME280_pressure;Samples;Min_cycle;Max_cycle;Signal;HPM_P1;HPM_P2
2022/03/16 00:00:00;;;;;;;27.7;24.8;;;;;;;5.7;100.0;102190;;;;
2022/03/16 00:01:00;;;;;;;26.6;23.4;;;;;;;5.7;100.0;102200;;;;
2022/03/16 00:02:00;;;;;;;26.6;23.4;;;;;;;5.7;100.0;102200;;;;
2022/03/16 00:03:00;;;;;;;26.6;23.4;;;;;;;5.7;100.0;102200;;;;
2022/03/16 00:04:00;;;;;;;26.6;23.4;;;;;;;5.7;100.0;102200;;;;
2022/03/16 00:05:00;;;;;;;26.6;23.4;;;;;;;5.7;100.0;102200;;;;
2022/03/16 00:06:00;;;;;;;26.6;23.4;;;;;;;5.7;100.0;102200;;;;
2022/03/16 00:07:00;;;;;;;26.6;23.4;;;;;;;5.7;100.0;102200;;;;
2022/03/16 00:08:00;;;;;;;26.6;23.4;;;;;;;5.7;100.0;102200;;;;
2022/03/16 00:09:00;;;;;;;26.6;23.4;;;;;;;5.6;100.0;102190;;;;
2022/03/16 00:10:00;;;;;;;26.6;23.4;;;;;;;5.6;100.0;102190;;;;
2022/03/16 00:11:00;;;;;;;26.6;23.4;;;;;;;5.5;100.0;102200;;;;
2022/03/16 00:12:00;;;;;;;26.6;23.4;;;;;;;5.5;100.0;102200;;;;
2022/03/16 00:13:00;;;;;;;26.6;23.4;;;;;;;5.5;100.0;102200;;;;
2022/03/16 00:14:00;;;;;;;26.6;23.4;;;;;;;5.5;100.0;102200;;;;
2022/03/16 00:15:00;;;;;;;26.6;23.4;;;;;;;5.6;100.0;102200;;;;
2022/03/16 00:16:00;;;;;;;26.6;23.4;;;;;;;5.6;100.0;102200;;;;
2022/03/16 00:17:00;;;;;;;26.6;23.4;;;;;;;5.5;100.0;102200;;;;
2022/03/16 00:18:00;;;;;;;26.6;23.4;;;;;;;5.5;100.0;102200;;;;
2022/03/16 00:19:00;;;;;;;26.6;23.4;;;;;;;5.4;100.0;102200;;;;
2022/03/16 00:20:00;;;;;;;26.6;23.4;;;;;;;5.4;100.0;102200;;;;
2022/03/16 00:21:00;;;;;;;26.8;23.9;;;;;;;5.5;100.0;102210;;;;
2022/03/16 00:22:00;;;;;;;26.8;23.9;;;;;;;5.5;100.0;102210;;;;
2022/03/16 00:23:00;;;;;;;26.8;23.9;;;;;;;5.5;100.0;102210;;;;
2022/03/16 00:24:00;;;;;;;26.8;23.9;;;;;;;5.5;100.0;102210;;;;
2022/03/16 00:25:01;;;;;;;26.8;23.9;;;;;;;5.5;100.0;102210;;;;
2022/03/16 00:26:00;;;;;;;26.8;23.9;;;;;;;5.5;100.0;102210;;;;
2022/03/16 00:27:00;;;;;;;26.8;23.9;;;;;;;5.3;100.0;102200;;;;
2022/03/16 00:28:00;;;;;;;26.8;23.9;;;;;;;5.3;100.0;102200;;;;
2022/03/16 00:29:00;;;;;;;26.8;23.9;;;;;;;5.3;100.0;102200;;;;
2022/03/16 00:30:00;;;;;;;26.8;23.9;;;;;;;5.3;100.0;102200;;;;
2022/03/16 00:31:02;;;;;;;26.8;23.9;;;;;;;5.3;100.0;102200;;;;
2022/03/16 00:32:00;;;;;;;26.8;23.9;;;;;;;5.3;100.0;102200;;;;
2022/03/16 00:33:00;;;;;;;26.8;23.9;;;;;;;5.4;100.0;102200;;;;
2022/03/16 00:34:00;;;;;;;26.8;23.9;;;;;;;5.4;100.0;102200;;;;
2022/03/16 00:35:00;;;;;;;26.8;23.9;;;;;;;5.3;100.0;102200;;;;
2022/03/16 00:36:00;;;;;;;26.8;23.9;;;;;;;5.3;100.0;102200;;;;
2022/03/16 00:37:00;;;;;;;26.8;23.9;;;;;;;5.2;100.0;102200;;;;
2022/03/16 00:38:00;;;;;;;26.8;23.9;;;;;;;5.2;100.0;102200;;;;
2022/03/16 00:39:00;;;;;;;26.8;23.9;;;;;;;5.3;100.0;102210;;;;
2022/03/16 00:40:00;;;;;;;26.8;23.9;;;;;;;5.3;100.0;102210;;;;
2022/03/16 00:41:01;;;;;;;29.2;26.2;;;;;;;5.3;100.0;102200;;;;
2022/03/16 00:42:00;;;;;;;29.2;26.2;;;;;;;5.3;100.0;102200;;;;
2022/03/16 00:43:00;;;;;;;29.2;26.2;;;;;;;5.3;100.0;102210;;;;
2022/03/16 00:44:00;;;;;;;29.2;26.2;;;;;;;5.3;100.0;102210;;;;
2022/03/16 00:45:00;;;;;;;29.2;26.2;;;;;;;5.2;100.0;102210;;;;
2022/03/16 00:46:01;;;;;;;29.2;26.2;;;;;;;5.2;100.0;102210;;;;
2022/03/16 00:47:00;;;;;;;29.2;26.2;;;;;;;5.2;100.0;102210;;;;
2022/03/16 00:48:00;;;;;;;29.2;26.2;;;;;;;5.2;100.0;102210;;;;
2022/03/16 00:49:00;;;;;;;29.2;26.2;;;;;;;5.2;100.0;102210;;;;
2022/03/16 00:50:00;;;;;;;29.2;26.2;;;;;;;5.2;100.0;102210;;;;
2022/03/16 00:51:00;;;;;;;29.2;26.2;;;;;;;5.2;100.0;102210;;;;
2022/03/16 00:52:00;;;;;;;29.2;26.2;;;;;;;5.2;100.0;102210;;;;
2022/03/16 00:53:00;;;;;;;29.2;26.2;;;;;;;5.2;100.0;102210;;;;
2022/03/16 00:54:00;;;;;;;29.2;26.2;;;;;;;5.2;100.0;102210;;;;
2022/03/16 00:55:00;;;;;;;29.2;26.2;;;;;;;5.1;100.0;102210;;;;
2022/03/16 00:56:01;;;;;;;29.2;26.2;;;;;;;5.2;100.0;102210;;;;
2022/03/16 00:57:01;;;;;;;29.2;26.2;;;;;;;5.2;100.0;102210;;;;
2022/03/16 00:58:01;;;;;;;29.2;26.2;;;;;;;5.2;100.0;102210;;;;
2022/03/16 00:59:00;;;;;;;29.2;26.2;;;;;;;5.2;100.0;102210;;;;
2022/03/16 01:00:00;;;;;;;29.2;26.2;;;;;;;5.2;100.0;102210;;;;
2022/03/16 01:01:01;;;;;;;31.4;28.1;;;;;;;5.2;100.0;102210;;;;
2022/03/16 01:02:00;;;;;;;31.4;28.1;;;;;;;5.2;100.0;102210;;;;
2022/03/16 01:03:00;;;;;;;31.4;28.1;;;;;;;5.2;100.0;102200;;;;
2022/03/16 01:04:00;;;;;;;31.4;28.1;;;;;;;5.2;100.0;102200;;;;
2022/03/16 01:05:00;;;;;;;31.4;28.1;;;;;;;5.1;100.0;102210;;;;
2022/03/16 01:06:00;;;;;;;31.4;28.1;;;;;;;5.1;100.0;102210;;;;
2022/03/16 01:07:00;;;;;;;31.4;28.1;;;;;;;5.1;100.0;102200;;;;
2022/03/16 01:08:00;;;;;;;31.4;28.1;;;;;;;5.1;100.0;102200;;;;
2022/03/16 01:09:00;;;;;;;31.4;28.1;;;;;;;5.1;100.0;102200;;;;
2022/03/16 01:10:00;;;;;;;31.4;28.1;;;;;;;5.1;100.0;102200;;;;
2022/03/16 01:11:00;;;;;;;31.4;28.1;;;;;;;5.0;100.0;102200;;;;
2022/03/16 01:12:01;;;;;;;31.4;28.1;;;;;;;5.0;100.0;102200;;;;
2022/03/16 01:13:00;;;;;;;31.4;28.1;;;;;;;5.0;100.0;102200;;;;
2022/03/16 01:14:00;;;;;;;31.4;28.1;;;;;;;5.0;100.0;102200;;;;
2022/03/16 01:15:00;;;;;;;31.4;28.1;;;;;;;5.1;100.0;102190;;;;
2022/03/16 01:16:00;;;;;;;31.4;28.1;;;;;;;5.1;100.0;102190;;;;
2022/03/16 01:17:00;;;;;;;31.4;28.1;;;;;;;5.1;100.0;102200;;;;
2022/03/16 01:18:00;;;;;;;31.4;28.1;;;;;;;5.1;100.0;102200;;;;
2022/03/16 01:19:00;;;;;;;31.4;28.1;;;;;;;5.1;100.0;102200;;;;
2022/03/16 01:20:00;;;;;;;31.4;28.1;;;;;;;5.1;100.0;102200;;;;
2022/03/16 01:21:00;;;;;;;29.2;26.1;;;;;;;5.0;100.0;102200;;;;
2022/03/16 01:22:00;;;;;;;29.2;26.1;;;;;;;5.0;100.0;102200;;;;
2022/03/16 01:23:00;;;;;;;29.2;26.1;;;;;;;5.0;100.0;102190;;;;
2022/03/16 01:24:00;;;;;;;29.2;26.1;;;;;;;5.0;100.0;102190;;;;
2022/03/16 01:25:00;;;;;;;29.2;26.1;;;;;;;5.0;100.0;102190;;;;
2022/03/16 01:26:00;;;;;;;29.2;26.1;;;;;;;5.0;100.0;102190;;;;
2022/03/16 01:27:00;;;;;;;29.2;26.1;;;;;;;5.0;100.0;102190;;;;
2022/03/16 01:28:00;;;;;;;29.2;26.1;;;;;;;5.0;100.0;102190;;;;
2022/03/16 01:29:01;;;;;;;29.2;26.1;;;;;;;5.1;100.0;102190;;;;
2022/03/16 01:30:00;;;;;;;29.2;26.1;;;;;;;5.1;100.0;102190;;;;
2022/03/16 01:31:01;;;;;;;29.2;26.1;;;;;;;4.9;100.0;102190;;;;
2022/03/16 01:32:00;;;;;;;29.2;26.1;;;;;;;4.9;100.0;102190;;;;
2022/03/16 01:33:00;;;;;;;29.2;26.1;;;;;;;5.0;100.0;102190;;;;
2022/03/16 01:34:00;;;;;;;29.2;26.1;;;;;;;5.0;100.0;102190;;;;
2022/03/16 01:35:00;;;;;;;29.2;26.1;;;;;;;5.0;100.0;102190;;;;
2022/03/16 01:36:00;;;;;;;29.2;26.1;;;;;;;5.0;100.0;102190;;;;
2022/03/16 01:37:00;;;;;;;29.2;26.1;;;;;;;4.9;100.0;102190;;;;
2022/03/16 01:38:00;;;;;;;29.2;26.1;;;;;;;4.9;100.0;102190;;;;
2022/03/16 01:39:00;;;;;;;29.2;26.1;;;;;;;4.9;100.0;102180;;;;
2022/03/16 01:40:00;;;;;;;29.2;26.1;;;;;;;4.9;100.0;102180;;;;
2022/03/16 01:41:00;;;;;;;33.6;30.1;;;;;;;4.9;100.0;102180;;;;
2022/03/16 01:42:00;;;;;;;33.6;30.1;;;;;;;4.9;100.0;102180;;;;
2022/03/16 01:43:00;;;;;;;33.6;30.1;;;;;;;5.0;100.0;102180;;;;
2022/03/16 01:44:00;;;;;;;33.6;30.1;;;;;;;5.0;100.0;102180;;;;
2022/03/16 01:45:00;;;;;;;33.6;30.1;;;;;;;5.0;100.0;102180;;;;
2022/03/16 01:46:00;;;;;;;33.6;30.1;;;;;;;5.0;100.0;102180;;;;
2022/03/16 01:47:00;;;;;;;33.6;30.1;;;;;;;5.0;100.0;102180;;;;
2022/03/16 01:48:00;;;;;;;33.6;30.1;;;;;;;5.0;100.0;102180;;;;
2022/03/16 01:49:00;;;;;;;33.6;30.1;;;;;;;4.9;100.0;102170;;;;
2022/03/16 01:50:00;;;;;;;33.6;30.1;;;;;;;4.9;100.0;102170;;;;
2022/03/16 01:51:00;;;;;;;33.6;30.1;;;;;;;4.9;100.0;102170;;;;
2022/03/16 01:52:00;;;;;;;33.6;30.1;;;;;;;4.9;100.0;102170;;;;
2022/03/16 01:53:00;;;;;;;33.6;30.1;;;;;;;4.8;100.0;102170;;;;
2022/03/16 01:54:00;;;;;;;33.6;30.1;;;;;;;4.8;100.0;102170;;;;
2022/03/16 01:55:04;;;;;;;33.6;30.1;;;;;;;4.8;100.0;102170;;;;
2022/03/16 01:56:00;;;;;;;33.6;30.1;;;;;;;4.8;100.0;102170;;;;
2022/03/16 01:57:00;;;;;;;33.6;30.1;;;;;;;4.8;100.0;102170;;;;
2022/03/16 01:58:00;;;;;;;33.6;30.1;;;;;;;4.8;100.0;102170;;;;
2022/03/16 01:59:00;;;;;;;33.6;30.1;;;;;;;5.0;100.0;102160;;;;
2022/03/16 02:00:01;;;;;;;33.6;30.1;;;;;;;5.0;100.0;102160;;;;
2022/03/16 02:01:00;;;;;;;36.5;32.6;;;;;;;5.0;100.0;102170;;;;
2022/03/16 02:02:00;;;;;;;36.5;32.6;;;;;;;5.0;100.0;102170;;;;
2022/03/16 02:03:00;;;;;;;36.5;32.6;;;;;;;5.0;100.0;102160;;;;
2022/03/16 02:04:00;;;;;;;36.5;32.6;;;;;;;5.0;100.0;102160;;;;
2022/03/16 02:05:00;;;;;;;36.5;32.6;;;;;;;4.8;100.0;102160;;;;
2022/03/16 02:06:00;;;;;;;36.5;32.6;;;;;;;4.8;100.0;102160;;;;
2022/03/16 02:07:00;;;;;;;36.5;32.6;;;;;;;4.9;100.0;102160;;;;
2022/03/16 02:08:01;;;;;;;36.5;32.6;;;;;;;4.8;100.0;102160;;;;
2022/03/16 02:09:00;;;;;;;36.5;32.6;;;;;;;4.8;100.0;102160;;;;
2022/03/16 02:10:00;;;;;;;36.5;32.6;;;;;;;4.8;100.0;102160;;;;
2022/03/16 02:11:00;;;;;;;36.5;32.6;;;;;;;4.8;100.0;102150;;;;
2022/03/16 02:12:00;;;;;;;36.5;32.6;;;;;;;4.8;100.0;102150;;;;
2022/03/16 02:13:00;;;;;;;36.5;32.6;;;;;;;4.9;100.0;102150;;;;
2022/03/16 02:14:00;;;;;;;36.5;32.6;;;;;;;4.9;100.0;102150;;;;
2022/03/16 02:15:00;;;;;;;36.5;32.6;;;;;;;4.8;100.0;102140;;;;
2022/03/16 02:16:00;;;;;;;36.5;32.6;;;;;;;4.8;100.0;102140;;;;
2022/03/16 02:17:00;;;;;;;36.5;32.6;;;;;;;4.9;100.0;102140;;;;
2022/03/16 02:18:00;;;;;;;36.5;32.6;;;;;;;4.9;100.0;102140;;;;
2022/03/16 02:19:00;;;;;;;36.5;32.6;;;;;;;4.8;100.0;102130;;;;
2022/03/16 02:20:00;;;;;;;36.5;32.6;;;;;;;4.8;100.0;102130;;;;
2022/03/16 02:21:02;;;;;;;39.4;35.3;;;;;;;4.8;100.0;102130;;;;
2022/03/16 02:22:02;;;;;;;39.4;35.3;;;;;;;4.7;100.0;102130;;;;
2022/03/16 02:23:02;;;;;;;39.4;35.3;;;;;;;4.7;100.0;102130;;;;
2022/03/16 02:24:01;;;;;;;39.4;35.3;;;;;;;4.7;100.0;102130;;;;
2022/03/16 02:25:00;;;;;;;39.4;35.3;;;;;;;4.7;100.0;102130;;;;
2022/03/16 02:26:00;;;;;;;39.4;35.3;;;;;;;4.7;100.0;102130;;;;
2022/03/16 02:27:00;;;;;;;39.4;35.3;;;;;;;4.9;100.0;102130;;;;
2022/03/16 02:28:00;;;;;;;39.4;35.3;;;;;;;4.9;100.0;102130;;;;
2022/03/16 02:29:00;;;;;;;39.4;35.3;;;;;;;4.9;100.0;102130;;;;
2022/03/16 02:30:00;;;;;;;39.4;35.3;;;;;;;4.9;100.0;102130;;;;
2022/03/16 02:31:00;;;;;;;39.4;35.3;;;;;;;4.9;100.0;102130;;;;
2022/03/16 02:32:00;;;;;;;39.4;35.3;;;;;;;4.9;100.0;102130;;;;
2022/03/16 02:33:00;;;;;;;39.4;35.3;;;;;;;4.8;100.0;102130;;;;
2022/03/16 02:34:00;;;;;;;39.4;35.3;;;;;;;4.8;100.0;102130;;;;
2022/03/16 02:35:00;;;;;;;39.4;35.3;;;;;;;4.9;100.0;102130;;;;
2022/03/16 02:36:00;;;;;;;39.4;35.3;;;;;;;4.9;100.0;102130;;;;
2022/03/16 02:37:00;;;;;;;39.4;35.3;;;;;;;4.7;100.0;102130;;;;
2022/03/16 02:38:00;;;;;;;39.4;35.3;;;;;;;4.7;100.0;102130;;;;
2022/03/16 02:39:00;;;;;;;39.4;35.3;;;;;;;4.9;100.0;102130;;;;
2022/03/16 02:40:01;;;;;;;39.4;35.3;;;;;;;4.9;100.0;102130;;;;
2022/03/16 02:41:00;;;;;;;37.2;33.5;;;;;;;4.8;100.0;102130;;;;
2022/03/16 02:42:00;;;;;;;37.2;33.5;;;;;;;4.8;100.0;102130;;;;
2022/03/16 02:43:00;;;;;;;37.2;33.5;;;;;;;4.9;100.0;102130;;;;
2022/03/16 02:44:00;;;;;;;37.2;33.5;;;;;;;4.9;100.0;102130;;;;
2022/03/16 02:45:00;;;;;;;37.2;33.5;;;;;;;4.8;100.0;102120;;;;
2022/03/16 02:46:00;;;;;;;37.2;33.5;;;;;;;4.8;100.0;102120;;;;
2022/03/16 02:47:00;;;;;;;37.2;33.5;;;;;;;4.8;100.0;102130;;;;
2022/03/16 02:48:00;;;;;;;37.2;33.5;;;;;;;4.8;100.0;102130;;;;
2022/03/16 02:49:00;;;;;;;37.2;33.5;;;;;;;4.8;100.0;102130;;;;
2022/03/16 02:50:00;;;;;;;37.2;33.5;;;;;;;4.8;100.0;102130;;;;
2022/03/16 02:51:00;;;;;;;37.2;33.5;;;;;;;4.8;100.0;102130;;;;
2022/03/16 02:52:05;;;;;;;37.2;33.5;;;;;;;4.9;100.0;102130;;;;
2022/03/16 02:53:10;;;;;;;37.2;33.5;;;;;;;4.9;100.0;102130;;;;
2022/03/16 02:54:00;;;;;;;37.2;33.5;;;;;;;4.9;100.0;102130;;;;
2022/03/16 02:55:00;;;;;;;37.2;33.5;;;;;;;4.9;100.0;102130;;;;
2022/03/16 02:56:00;;;;;;;37.2;33.5;;;;;;;4.9;100.0;102130;;;;
2022/03/16 02:57:00;;;;;;;37.2;33.5;;;;;;;4.9;100.0;102130;;;;
2022/03/16 02:58:00;;;;;;;37.2;33.5;;;;;;;4.9;100.0;102130;;;;
2022/03/16 02:59:01;;;;;;;37.2;33.5;;;;;;;4.8;100.0;102130;;;;
2022/03/16 03:00:00;;;;;;;37.2;33.5;;;;;;;4.8;100.0;102130;;;;
2022/03/16 03:01:00;;;;;;;36.3;32.6;;;;;;;4.8;100.0;102130;;;;
2022/03/16 03:02:00;;;;;;;36.3;32.6;;;;;;;4.8;100.0;102130;;;;
2022/03/16 03:03:00;;;;;;;36.3;32.6;;;;;;;4.8;100.0;102130;;;;
2022/03/16 03:04:00;;;;;;;36.3;32.6;;;;;;;4.8;100.0;102130;;;;
2022/03/16 03:05:00;;;;;;;36.3;32.6;;;;;;;4.8;100.0;102120;;;;
2022/03/16 03:06:00;;;;;;;36.3;32.6;;;;;;;4.8;100.0;102120;;;;
2022/03/16 03:07:00;;;;;;;36.3;32.6;;;;;;;4.8;100.0;102120;;;;
2022/03/16 03:08:00;;;;;;;36.3;32.6;;;;;;;4.8;100.0;102120;;;;
2022/03/16 03:09:00;;;;;;;36.3;32.6;;;;;;;4.8;100.0;102120;;;;
2022/03/16 03:10:00;;;;;;;36.3;32.6;;;;;;;4.8;100.0;102120;;;;
2022/03/16 03:11:00;;;;;;;36.3;32.6;;;;;;;4.7;100.0;102110;;;;
2022/03/16 03:12:01;;;;;;;36.3;32.6;;;;;;;4.7;100.0;102110;;;;
2022/03/16 03:13:00;;;;;;;36.3;32.6;;;;;;;4.8;100.0;102110;;;;
2022/03/16 03:14:00;;;;;;;36.3;32.6;;;;;;;4.8;100.0;102110;;;;
2022/03/16 03:15:00;;;;;;;36.3;32.6;;;;;;;4.7;100.0;102120;;;;
2022/03/16 03:16:00;;;;;;;36.3;32.6;;;;;;;4.7;100.0;102120;;;;
2022/03/16 03:17:01;;;;;;;36.3;32.6;;;;;;;4.7;100.0;102130;;;;
2022/03/16 03:18:00;;;;;;;36.3;32.6;;;;;;;4.7;100.0;102130;;;;
2022/03/16 03:19:00;;;;;;;36.3;32.6;;;;;;;4.7;100.0;102130;;;;
2022/03/16 03:20:00;;;;;;;36.3;32.6;;;;;;;4.7;100.0;102130;;;;
2022/03/16 03:21:00;;;;;;;36.6;32.9;;;;;;;4.7;100.0;102130;;;;
2022/03/16 03:22:00;;;;;;;36.6;32.9;;;;;;;4.7;100.0;102130;;;;
2022/03/16 03:23:00;;;;;;;36.6;32.9;;;;;;;4.6;100.0;102130;;;;
2022/03/16 03:24:00;;;;;;;36.6;32.9;;;;;;;4.6;100.0;102130;;;;
2022/03/16 03:25:00;;;;;;;36.6;32.9;;;;;;;4.6;100.0;102130;;;;
2022/03/16 03:26:00;;;;;;;36.6;32.9;;;;;;;4.6;100.0;102130;;;;
2022/03/16 03:27:00;;;;;;;36.6;32.9;;;;;;;4.6;100.0;102130;;;;
2022/03/16 03:28:00;;;;;;;36.6;32.9;;;;;;;4.6;100.0;102130;;;;
2022/03/16 03:29:00;;;;;;;36.6;32.9;;;;;;;4.5;100.0;102120;;;;
2022/03/16 03:30:00;;;;;;;36.6;32.9;;;;;;;4.5;100.0;102120;;;;
2022/03/16 03:31:00;;;;;;;36.6;32.9;;;;;;;4.6;100.0;102120;;;;
2022/03/16 03:32:00;;;;;;;36.6;32.9;;;;;;;4.6;100.0;102120;;;;
2022/03/16 03:33:00;;;;;;;36.6;32.9;;;;;;;4.6;100.0;102120;;;;
2022/03/16 03:34:00;;;;;;;36.6;32.9;;;;;;;4.6;100.0;102120;;;;
2022/03/16 03:35:00;;;;;;;36.6;32.9;;;;;;;4.5;100.0;102120;;;;
2022/03/16 03:36:00;;;;;;;36.6;32.9;;;;;;;4.5;100.0;102120;;;;
2022/03/16 03:37:00;;;;;;;36.6;32.9;;;;;;;4.6;100.0;102120;;;;
2022/03/16 03:38:00;;;;;;;36.6;32.9;;;;;;;4.6;100.0;102120;;;;
2022/03/16 03:39:00;;;;;;;36.6;32.9;;;;;;;4.5;100.0;102120;;;;
2022/03/16 03:40:00;;;;;;;38.4;34.5;;;;;;;4.5;100.0;102120;;;;
2022/03/16 03:41:00;;;;;;;38.4;34.5;;;;;;;4.6;100.0;102110;;;;
2022/03/16 03:42:00;;;;;;;38.4;34.5;;;;;;;4.6;100.0;102110;;;;
2022/03/16 03:43:00;;;;;;;38.4;34.5;;;;;;;4.6;100.0;102120;;;;
2022/03/16 03:44:00;;;;;;;38.4;34.5;;;;;;;4.6;100.0;102120;;;;
2022/03/16 03:45:00;;;;;;;38.4;34.5;;;;;;;4.5;100.0;102120;;;;
2022/03/16 03:46:00;;;;;;;38.4;34.5;;;;;;;4.5;100.0;102120;;;;
2022/03/16 03:47:00;;;;;;;38.4;34.5;;;;;;;4.5;100.0;102120;;;;
2022/03/16 03:48:00;;;;;;;38.4;34.5;;;;;;;4.5;100.0;102120;;;;
2022/03/16 03:49:00;;;;;;;38.4;34.5;;;;;;;4.4;100.0;102130;;;;
2022/03/16 03:50:01;;;;;;;38.4;34.5;;;;;;;4.4;100.0;102130;;;;
2022/03/16 03:51:00;;;;;;;38.4;34.5;;;;;;;4.4;100.0;102130;;;;
2022/03/16 03:52:00;;;;;;;38.4;34.5;;;;;;;4.4;100.0;102130;;;;
2022/03/16 03:53:00;;;;;;;38.4;34.5;;;;;;;4.3;100.0;102130;;;;
2022/03/16 03:54:00;;;;;;;38.4;34.5;;;;;;;4.3;100.0;102130;;;;
2022/03/16 03:55:00;;;;;;;38.4;34.5;;;;;;;4.4;100.0;102130;;;;
2022/03/16 03:56:00;;;;;;;38.4;34.5;;;;;;;4.4;100.0;102130;;;;
2022/03/16 03:57:00;;;;;;;38.4;34.5;;;;;;;4.4;100.0;102140;;;;
2022/03/16 03:58:00;;;;;;;38.4;34.5;;;;;;;4.4;100.0;102140;;;;
2022/03/16 03:59:00;;;;;;;38.4;34.5;;;;;;;4.3;100.0;102130;;;;
2022/03/16 04:00:00;;;;;;;40.3;36.1;;;;;;;4.3;100.0;102130;;;;
2022/03/16 04:01:00;;;;;;;40.3;36.1;;;;;;;4.2;100.0;102130;;;;
2022/03/16 04:02:00;;;;;;;40.3;36.1;;;;;;;4.2;100.0;102130;;;;
2022/03/16 04:03:00;;;;;;;40.3;36.1;;;;;;;4.2;100.0;102130;;;;
2022/03/16 04:04:00;;;;;;;40.3;36.1;;;;;;;4.2;100.0;102130;;;;
2022/03/16 04:05:03;;;;;;;40.3;36.1;;;;;;;4.1;100.0;102130;;;;
2022/03/16 04:06:00;;;;;;;40.3;36.1;;;;;;;4.1;100.0;102130;;;;
2022/03/16 04:07:00;;;;;;;40.3;36.1;;;;;;;4.1;100.0;102140;;;;
2022/03/16 04:08:00;;;;;;;40.3;36.1;;;;;;;4.1;100.0;102140;;;;
2022/03/16 04:09:00;;;;;;;40.3;36.1;;;;;;;4.2;100.0;102140;;;;
2022/03/16 04:10:00;;;;;;;40.3;36.1;;;;;;;4.2;100.0;102140;;;;
2022/03/16 04:11:00;;;;;;;40.3;36.1;;;;;;;4.1;100.0;102140;;;;
2022/03/16 04:12:00;;;;;;;40.3;36.1;;;;;;;4.1;100.0;102140;;;;
2022/03/16 04:13:00;;;;;;;40.3;36.1;;;;;;;4.1;100.0;102140;;;;
2022/03/16 04:14:00;;;;;;;40.3;36.1;;;;;;;4.1;100.0;102140;;;;
2022/03/16 04:15:00;;;;;;;40.3;36.1;;;;;;;4.0;100.0;102140;;;;
2022/03/16 04:16:00;;;;;;;40.3;36.1;;;;;;;4.0;100.0;102140;;;;
2022/03/16 04:17:00;;;;;;;40.3;36.1;;;;;;;4.1;100.0;102140;;;;
2022/03/16 04:18:00;;;;;;;40.3;36.1;;;;;;;4.1;100.0;102140;;;;
2022/03/16 04:19:00;;;;;;;40.3;36.1;;;;;;;4.1;100.0;102140;;;;
2022/03/16 04:20:00;;;;;;;42.8;38.2;;;;;;;4.1;100.0;102140;;;;
2022/03/16 04:21:00;;;;;;;42.8;38.2;;;;;;;4.0;100.0;102130;;;;
2022/03/16 04:22:00;;;;;;;42.8;38.2;;;;;;;4.0;100.0;102130;;;;
2022/03/16 04:23:00;;;;;;;42.8;38.2;;;;;;;4.0;100.0;102140;;;;
2022/03/16 04:24:00;;;;;;;42.8;38.2;;;;;;;4.0;100.0;102140;;;;
2022/03/16 04:25:00;;;;;;;42.8;38.2;;;;;;;4.1;100.0;102140;;;;
2022/03/16 04:26:00;;;;;;;42.8;38.2;;;;;;;4.1;100.0;102140;;;;
2022/03/16 04:27:00;;;;;;;42.8;38.2;;;;;;;4.1;100.0;102140;;;;
2022/03/16 04:28:00;;;;;;;42.8;38.2;;;;;;;4.1;100.0;102140;;;;
2022/03/16 04:29:00;;;;;;;42.8;38.2;;;;;;;4.1;100.0;102130;;;;
2022/03/16 04:30:00;;;;;;;42.8;38.2;;;;;;;4.1;100.0;102130;;;;
2022/03/16 04:31:00;;;;;;;42.8;38.2;;;;;;;4.2;100.0;102140;;;;
2022/03/16 04:32:00;;;;;;;42.8;38.2;;;;;;;4.2;100.0;102140;;;;
2022/03/16 04:33:00;;;;;;;42.8;38.2;;;;;;;4.1;100.0;102140;;;;
2022/03/16 04:34:00;;;;;;;42.8;38.2;;;;;;;4.1;100.0;102140;;;;
2022/03/16 04:35:00;;;;;;;42.8;38.2;;;;;;;4.0;100.0;102140;;;;
2022/03/16 04:36:00;;;;;;;42.8;38.2;;;;;;;4.0;100.0;102140;;;;
2022/03/16 04:37:00;;;;;;;42.8;38.2;;;;;;;4.1;100.0;102140;;;;
2022/03/16 04:38:00;;;;;;;42.8;38.2;;;;;;;4.1;100.0;102140;;;;
2022/03/16 04:39:00;;;;;;;42.8;38.2;;;;;;;4.0;100.0;102150;;;;
2022/03/16 04:40:00;;;;;;;43.4;38.7;;;;;;;4.0;100.0;102150;;;;
2022/03/16 04:41:01;;;;;;;43.4;38.7;;;;;;;4.0;100.0;102140;;;;
2022/03/16 04:42:00;;;;;;;43.4;38.7;;;;;;;4.0;100.0;102140;;;;
2022/03/16 04:43:00;;;;;;;43.4;38.7;;;;;;;4.1;100.0;102140;;;;
2022/03/16 04:44:00;;;;;;;43.4;38.7;;;;;;;4.1;100.0;102140;;;;
2022/03/16 04:45:00;;;;;;;43.4;38.7;;;;;;;4.0;100.0;102130;;;;
2022/03/16 04:46:01;;;;;;;43.4;38.7;;;;;;;4.0;100.0;102130;;;;
2022/03/16 04:47:00;;;;;;;43.4;38.7;;;;;;;4.0;100.0;102130;;;;
2022/03/16 04:48:07;;;;;;;43.4;38.7;;;;;;;4.0;100.0;102140;;;;
2022/03/16 04:49:00;;;;;;;43.4;38.7;;;;;;;4.0;100.0;102140;;;;
2022/03/16 04:50:00;;;;;;;43.4;38.7;;;;;;;4.0;100.0;102140;;;;
2022/03/16 04:51:00;;;;;;;43.4;38.7;;;;;;;3.9;100.0;102130;;;;
2022/03/16 04:52:00;;;;;;;43.4;38.7;;;;;;;3.9;100.0;102130;;;;
2022/03/16 04:53:00;;;;;;;43.4;38.7;;;;;;;3.9;100.0;102130;;;;
2022/03/16 04:54:00;;;;;;;43.4;38.7;;;;;;;3.9;100.0;102130;;;;
2022/03/16 04:55:00;;;;;;;43.4;38.7;;;;;;;3.8;100.0;102130;;;;
2022/03/16 04:56:00;;;;;;;43.4;38.7;;;;;;;3.8;100.0;102130;;;;
2022/03/16 04:57:00;;;;;;;43.4;38.7;;;;;;;3.8;100.0;102130;;;;
2022/03/16 04:58:00;;;;;;;43.4;38.7;;;;;;;3.8;100.0;102130;;;;
2022/03/16 04:59:00;;;;;;;43.4;38.7;;;;;;;3.8;100.0;102130;;;;
2022/03/16 05:00:00;;;;;;;44.6;39.7;;;;;;;3.8;100.0;102130;;;;
2022/03/16 05:01:00;;;;;;;44.6;39.7;;;;;;;4.0;100.0;102120;;;;
2022/03/16 05:02:00;;;;;;;44.6;39.7;;;;;;;4.0;100.0;102120;;;;
2022/03/16 05:03:00;;;;;;;44.6;39.7;;;;;;;3.9;100.0;102120;;;;
2022/03/16 05:04:00;;;;;;;44.6;39.7;;;;;;;3.9;100.0;102120;;;;
2022/03/16 05:05:00;;;;;;;44.6;39.7;;;;;;;3.8;100.0;102120;;;;
2022/03/16 05:06:00;;;;;;;44.6;39.7;;;;;;;3.8;100.0;102120;;;;
2022/03/16 05:07:00;;;;;;;44.6;39.7;;;;;;;4.0;100.0;102130;;;;
2022/03/16 05:08:00;;;;;;;44.6;39.7;;;;;;;4.0;100.0;102130;;;;
2022/03/16 05:09:00;;;;;;;44.6;39.7;;;;;;;3.9;100.0;102120;;;;
2022/03/16 05:10:00;;;;;;;44.6;39.7;;;;;;;3.9;100.0;102120;;;;
2022/03/16 05:11:00;;;;;;;44.6;39.7;;;;;;;4.0;100.0;102120;;;;
2022/03/16 05:12:00;;;;;;;44.6;39.7;;;;;;;4.0;100.0;102120;;;;
2022/03/16 05:13:00;;;;;;;44.6;39.7;;;;;;;3.9;100.0;102120;;;;
2022/03/16 05:14:00;;;;;;;44.6;39.7;;;;;;;3.9;100.0;102120;;;;
2022/03/16 05:15:00;;;;;;;44.6;39.7;;;;;;;4.0;100.0;102130;;;;
2022/03/16 05:16:00;;;;;;;44.6;39.7;;;;;;;4.0;100.0;102130;;;;
2022/03/16 05:17:00;;;;;;;44.6;39.7;;;;;;;3.9;100.0;102130;;;;
2022/03/16 05:18:00;;;;;;;44.6;39.7;;;;;;;3.9;100.0;102130;;;;
2022/03/16 05:19:00;;;;;;;44.6;39.7;;;;;;;3.9;100.0;102120;;;;
2022/03/16 05:20:00;;;;;;;41.8;37.3;;;;;;;3.9;100.0;102120;;;;
2022/03/16 05:21:03;;;;;;;41.8;37.3;;;;;;;3.9;100.0;102130;;;;
2022/03/16 05:22:00;;;;;;;41.8;37.3;;;;;;;3.9;100.0;102130;;;;
2022/03/16 05:23:00;;;;;;;41.8;37.3;;;;;;;3.8;100.0;102130;;;;
2022/03/16 05:24:00;;;;;;;41.8;37.3;;;;;;;3.8;100.0;102130;;;;
2022/03/16 05:25:00;;;;;;;41.8;37.3;;;;;;;3.8;100.0;102130;;;;
2022/03/16 05:26:00;;;;;;;41.8;37.3;;;;;;;3.8;100.0;102130;;;;
2022/03/16 05:27:00;;;;;;;41.8;37.3;;;;;;;3.8;100.0;102130;;;;
2022/03/16 05:28:00;;;;;;;41.8;37.3;;;;;;;3.8;100.0;102130;;;;
2022/03/16 05:29:00;;;;;;;41.8;37.3;;;;;;;3.8;100.0;102130;;;;
2022/03/16 05:30:00;;;;;;;41.8;37.3;;;;;;;3.8;100.0;102130;;;;
2022/03/16 05:31:00;;;;;;;41.8;37.3;;;;;;;3.8;100.0;102140;;;;
2022/03/16 05:32:00;;;;;;;41.8;37.3;;;;;;;3.8;100.0;102140;;;;
2022/03/16 05:33:00;;;;;;;41.8;37.3;;;;;;;3.9;100.0;102140;;;;
2022/03/16 05:34:00;;;;;;;41.8;37.3;;;;;;;3.9;100.0;102140;;;;
2022/03/16 05:35:00;;;;;;;41.8;37.3;;;;;;;3.8;100.0;102140;;;;
2022/03/16 05:36:00;;;;;;;41.8;37.3;;;;;;;3.8;100.0;102140;;;;
2022/03/16 05:37:00;;;;;;;41.8;37.3;;;;;;;3.8;100.0;102130;;;;
2022/03/16 05:38:02;;;;;;;41.8;37.3;;;;;;;3.8;100.0;102130;;;;
2022/03/16 05:39:00;;;;;;;41.8;37.3;;;;;;;3.8;100.0;102130;;;;
2022/03/16 05:40:00;;;;;;;36.8;32.9;;;;;;;3.8;100.0;102130;;;;
2022/03/16 05:41:00;;;;;;;36.8;32.9;;;;;;;3.9;100.0;102130;;;;
2022/03/16 05:42:01;;;;;;;36.8;32.9;;;;;;;3.9;100.0;102130;;;;
2022/03/16 05:43:00;;;;;;;36.8;32.9;;;;;;;3.8;100.0;102130;;;;
2022/03/16 05:44:00;;;;;;;36.8;32.9;;;;;;;3.8;100.0;102130;;;;
2022/03/16 05:45:00;;;;;;;36.8;32.9;;;;;;;3.9;100.0;102130;;;;
2022/03/16 05:46:01;;;;;;;36.8;32.9;;;;;;;3.9;100.0;102130;;;;
2022/03/16 05:47:00;;;;;;;36.8;32.9;;;;;;;4.0;100.0;102130;;;;
2022/03/16 05:48:00;;;;;;;36.8;32.9;;;;;;;4.0;100.0;102130;;;;
2022/03/16 05:49:00;;;;;;;36.8;32.9;;;;;;;4.0;100.0;102130;;;;
2022/03/16 05:50:00;;;;;;;36.8;32.9;;;;;;;4.0;100.0;102130;;;;
2022/03/16 05:51:00;;;;;;;36.8;32.9;;;;;;;4.0;100.0;102120;;;;
2022/03/16 05:52:00;;;;;;;36.8;32.9;;;;;;;4.0;100.0;102120;;;;
2022/03/16 05:53:01;;;;;;;36.8;32.9;;;;;;;4.0;100.0;102130;;;;
2022/03/16 05:54:00;;;;;;;36.8;32.9;;;;;;;4.0;100.0;102130;;;;
2022/03/16 05:55:00;;;;;;;36.8;32.9;;;;;;;4.0;100.0;102130;;;;
2022/03/16 05:56:00;;;;;;;36.8;32.9;;;;;;;4.0;100.0;102130;;;;
2022/03/16 05:57:00;;;;;;;36.8;32.9;;;;;;;4.1;100.0;102130;;;;
2022/03/16 05:58:00;;;;;;;36.8;32.9;;;;;;;4.1;100.0;102130;;;;
2022/03/16 05:59:00;;;;;;;36.8;32.9;;;;;;;4.0;100.0;102130;;;;
2022/03/16 06:00:00;;;;;;;31.4;28.1;;;;;;;4.0;100.0;102130;;;;
2022/03/16 06:01:00;;;;;;;31.4;28.1;;;;;;;4.0;100.0;102130;;;;
2022/03/16 06:02:00;;;;;;;31.4;28.1;;;;;;;4.0;100.0;102130;;;;
2022/03/16 06:03:00;;;;;;;31.4;28.1;;;;;;;4.1;100.0;102130;;;;
2022/03/16 06:04:00;;;;;;;31.4;28.1;;;;;;;4.1;100.0;102130;;;;
2022/03/16 06:05:00;;;;;;;31.4;28.1;;;;;;;4.0;100.0;102130;;;;
2022/03/16 06:06:00;;;;;;;31.4;28.1;;;;;;;4.0;100.0;102130;;;;
2022/03/16 06:07:00;;;;;;;31.4;28.1;;;;;;;4.1;100.0;102130;;;;
2022/03/16 06:08:01;;;;;;;31.4;28.1;;;;;;;4.1;100.0;102130;;;;
2022/03/16 06:09:00;;;;;;;31.4;28.1;;;;;;;4.1;100.0;102140;;;;
2022/03/16 06:10:00;;;;;;;31.4;28.1;;;;;;;4.1;100.0;102140;;;;
2022/03/16 06:11:00;;;;;;;31.4;28.1;;;;;;;4.2;100.0;102140;;;;
2022/03/16 06:12:00;;;;;;;31.4;28.1;;;;;;;4.2;100.0;102140;;;;
2022/03/16 06:13:01;;;;;;;31.4;28.1;;;;;;;4.2;100.0;102140;;;;
2022/03/16 06:14:00;;;;;;;31.4;28.1;;;;;;;4.2;100.0;102140;;;;
2022/03/16 06:15:00;;;;;;;31.4;28.1;;;;;;;4.2;100.0;102140;;;;
2022/03/16 06:16:00;;;;;;;31.4;28.1;;;;;;;4.2;100.0;102140;;;;